Fall 2017 online courses: (Updates Daily)

Click here for ways to register for all online courses


CRN Subj. Cat. Sec. Course Title/Topic Start Date End Date Faculty Course Info Page
67346 ANT 120 0990 Religions of the World 8/28/2017 12/8/2017 Henry L Munson View ANT 120 Info Page
66830 ANT 249 0990 Religion and Violence 8/28/2017 12/8/2017 Henry L Munson View ANT 249 Info Page
67134 ANT 426 0990 Native American Folklore 8/28/2017 12/8/2017 Pauleena M Macdougall View ANT 426 Info Page
65158 ARH 156 0990 Art and Visual Culture in the Modern Era 8/28/2017 12/8/2017 Justin Wolff View ARH 156 Info Page
65172 AST 109 0990 Introduction to Astronomy 8/28/2017 12/8/2017 David J Batuski View AST 109 Info Page
65180 AST 110 0990 Introduction to Astronomy Laboratory 8/28/2017 12/8/2017 David J Batuski View AST 110 Info Page
67020 BUA 201 0990 Principles of Financial Accounting 8/28/2017 12/8/2017 Wayne C Ingalls View BUA 201 Info Page
67822 BUA 601 P701 Statistical Analysis and Modeling for Organizational Operations 8/28/2017 12/8/2017 Patti Collett Miles View BUA 601 Info Page
67823 BUA 601 0990 Statistical Analysis and Modeling for Organizational Operations 8/28/2017 12/8/2017 Patti Collett Miles View BUA 601 Info Page
67825 BUA 605 P701 Creating and Capturing Value in the Digital Economy 8/28/2017 12/8/2017 Nory B Jones View BUA 605 Info Page
67739 BUA 645 0990 Selected Advanced Topics in Business Administration 8/28/2017 12/8/2017 John F Mahon View BUA 645 Info Page
67095 BUA 651 P701 Financial Management 8/28/2017 12/8/2017 Pankaj Agrrawal View BUA 651 Info Page
67096 BUA 651 0990 Financial Management 8/28/2017 12/8/2017 Pankaj Agrrawal View BUA 651 Info Page
65959 CHF 201 0990 Introduction to Child Development 8/28/2017 12/8/2017 Barbara D Howard View CHF 201 Info Page
67784 CHF 404 0990 Selected Topics in Child Development and Family Life 8/28/2017 12/8/2017 Renate Klein View CHF 404 Info Page
67785 CHF 404 0991 Selected Topics in Child Development and Family Life 8/28/2017 12/8/2017 Patrick P Cheek View CHF 404 Info Page
67786 CHF 404 0992 Selected Topics in Child Development and Family Life 8/28/2017 12/8/2017 Renate Klein View CHF 404 Info Page
66586 CLA 201 0990 Women in the Ancient World 8/28/2017 12/8/2017 James Patrick Brophy View CLA 201 Info Page
68095 CLA 400 0990 Hero: Myth and Meaning 8/28/2017 12/8/2017 Benjamin R Johnson View CLA 400 Info Page
67406 COS 103 0990 Introduction to Spreadsheets 8/28/2017 12/8/2017 Carol A Roberts View COS 103 Info Page
68193 DIG 500 P701 Introduction to Digital Curation 8/28/2017 12/8/2017 Justin Wolff, Jon Ippolito, Richard V Hollinger View DIG 500 Info Page
68194 DIG 500 0990 Introduction to Digital Curation 8/28/2017 12/8/2017 Justin Wolff, Jon Ippolito, Richard V Hollinger View DIG 500 Info Page
68203 DIG 540 P701 Digital Collections and Exhibitions 8/28/2017 12/8/2017 John P Bell View DIG 540 Info Page
68204 DIG 540 0990 Digital Collections and Exhibitions 8/28/2017 12/8/2017 John P Bell View DIG 540 Info Page
68261 DIG 580 P701 Digital Curation Internship 8/28/2017 12/8/2017 Pauleena M Macdougall View DIG 580 Info Page
68262 DIG 580 0990 Digital Curation Internship 8/28/2017 12/8/2017 Pauleena M Macdougall View DIG 580 Info Page
67827 DIS 530 0990 Disability Policy 8/28/2017 12/8/2017 Elizabeth Depoy View DIS 530 Info Page
67309 ECE 515 0990 Random Variables and Stochastic Processes 8/28/2017 12/8/2017 Ali Abedi View ECE 515 Info Page
65196 ECO 120 0990 Principles of Microeconomics 8/28/2017 12/8/2017 Todd M Gabe View ECO 120 Info Page
65199 ECO 121 0990 Principles of Macroeconomics 8/28/2017 12/8/2017 Travis Lawrence Blackmer View ECO 121 Info Page
67505 ECO 190 0990 World Food Supply, Population and the Environment 8/28/2017 12/8/2017 Aaron Kinyu Hoshide View ECO 190 Info Page
67585 ECO 410 P701 Accelerated Introductory Economics 8/28/2017 12/8/2017 Aaron Kinyu Hoshide View ECO 410 Info Page
67586 ECO 410 0990 Accelerated Introductory Economics 8/28/2017 12/8/2017 Aaron Kinyu Hoshide View ECO 410 Info Page
66666 ECO 489 0990 Senior Seminar 8/28/2017 12/8/2017 Mario F Teisl View ECO 489 Info Page
67743 EDT 520 0990 Digital Age Teaching and Learning Methods 8/28/2017 12/8/2017 Mia Lee Morrison View EDT 520 Info Page
68167 EDT 537 0990 Introduction to Flipped, Blended, and Online Learning 8/28/2017 12/8/2017 Jessica L Ludders View EDT 537 Info Page
68392 EDT 541 0990 Advanced Instructional Design 8/28/2017 12/8/2017 Peter Schilling View EDT 541 Info Page
68393 EDT 562 0990 Technology for Young Learners 8/28/2017 12/8/2017 Donna Karno View EDT 562 Info Page
67934 EDT 598 0990 Special Topics in Instructional Technology 8/28/2017 12/8/2017 Johanna Prince View EDT 598 Info Page
68180 EET 460 0994 Renewable Energy and Electricity Production 8/28/2017 12/8/2017 Paul L Villeneuve View EET 460 Info Page
65501 EHD 521 0990 Classroom Practice to improve Learning 8/28/2017 12/8/2017 Tammy Marie Mills View EHD 521 Info Page
67312 EHD 574 0990 Statistical Methods in Education II 8/28/2017 12/8/2017 Craig A Mason View EHD 574 Info Page
68211 EHD 587 0990 Practicum: Action Research in PreK-12 Schools 8/28/2017 12/8/2017 John E Maddaus View EHD 587 Info Page
66336 ENG 129 0990 Topics in English 8/28/2017 12/8/2017 Audrey Le View ENG 129 Info Page
68383 ENG 201 0990 Strategies for Writing across Contexts 8/28/2017 12/8/2017 Alan P Marks View ENG 201 Info Page
66418 ENG 229 0990 Topics in Literature 8/28/2017 12/8/2017 Alan P Marks View ENG 229 Info Page
66419 ENG 229 0991 Topics in Literature 8/28/2017 12/8/2017 Audrey Le View ENG 229 Info Page
72227 ERL 544 0990 Digital Writing in the Classroom 8/28/2017 12/8/2017 Stephanie Anne Laplante Hendrix View ERL 544 Info Page
72224 ERL 590 0990 Special Topics in English Language Arts and Related Fields 8/28/2017 12/8/2017 Anne-Marie C Jordan View ERL 590 Info Page
68178 ERS 191 0990 Energy in the Earth System 8/28/2017 12/8/2017 Karl Jacob Kreutz View ERS 191 Info Page
66893 FRE 201 0990 Intermediate French I 8/28/2017 12/8/2017 Jane S Smith View FRE 201 Info Page
66891 FRE 442 0990 French Language of North America 8/28/2017 12/8/2017 Jane S Smith View FRE 442 Info Page
67954 FRE 542 0990 Seminar in North American French Language 8/28/2017 12/8/2017 Jane S Smith View FRE 542 Info Page
66024 FSN 101 0990 Introduction to Food and Nutrition 8/28/2017 12/8/2017 Elizabeth Carol Dodge View FSN 101 Info Page
68202 GRN 500 0990 Opportunities and Challenges of Aging 8/28/2017 12/8/2017 Lenard W Kaye View GRN 500 Info Page
68228 GRN 503 0990 Health Policy Issues of an Aging Population 8/28/2017 12/8/2017 Lenard W Kaye View GRN 503 Info Page
65690 HED 690 0990 Higher Education Internship 8/28/2017 12/8/2017 Kathleen Gillon View HED 690 Info Page
67998 HTY 211 0990 Maine and the Sea 8/28/2017 12/8/2017 Erik Ejler Reardon View HTY 211 Info Page
66374 HTY 507 0994 American History to the Civil War 8/28/2017 12/8/2017 Liam O Riordan View HTY 507 Info Page
65546 HTY 599 0994 Special Topics in History 8/28/2017 12/8/2017 Anne Knowles View HTY 599 Info Page
68173 HUD 529 0990 Numeracy for the Young Child 8/28/2017 12/8/2017 Julie M Dellamattera View HUD 529 Info Page
65550 IDS 500 0990 Graduate Seminar in Interdisciplinary Studies 8/28/2017 12/8/2017 James Patrick Brophy View IDS 500 Info Page
67923 INT 601 0990 (University Wide) Responsible Conduct of Research 10/17/2017 11/16/2017 James J Campbell View INT 601 Info Page
67925 INT 601 0991 (University Wide) Responsible Conduct of Research 10/17/2017 11/16/2017 James J Campbell View INT 601 Info Page
67924 INT 601 0992 (University Wide) Responsible Conduct of Research 10/16/2017 11/15/2017 James J Campbell View INT 601 Info Page
66434 KPE 271 0990 History and Philosophy of Kinesiology and Physical Education 8/28/2017 12/8/2017 Jesse Loren Kaye-Schiess View KPE 271 Info Page
66031 LAT 101 0990 Elementary Latin I 8/28/2017 12/8/2017 Paulette E Barton View LAT 101 Info Page
68285 LDR 100 0990 Foundations of Leadership 8/28/2017 12/8/2017 Richard J Powell View LDR 100 Info Page
67876 LST 201 0990 Work and Labor in a Global Economy 8/28/2017 12/8/2017 Marc Cryer, Valerie J Carter View LST 201 Info Page
68246 MAT 111 0990 Algebra for College Mathematics 8/28/2017 12/8/2017 TBA View MAT 111 Info Page
65871 MAT 115 0990 Applied Mathematics for Business and Economics 8/28/2017 12/8/2017 TBA View MAT 115 Info Page
66201 MAT 122 0990 Pre-Calculus 8/28/2017 12/8/2017 TBA View MAT 122 Info Page
66245 MAT 126 0990 Calculus I 8/28/2017 12/8/2017 TBA View MAT 126 Info Page
68094 MEE 446 0990 Astronautics 8/28/2017 12/8/2017 David Rubenstein View MEE 446 Info Page
68028 MES 101 0860 Introduction to Maine Studies 8/28/2017 12/8/2017 Daniel Steven Soucier View MES 101 Info Page
68067 MES 201 0990 The Maine Coast 8/28/2017 12/8/2017 Ian Jesse View MES 201 Info Page
68000 MES 498 0990 Advanced Topics in Maine Studies 8/28/2017 12/8/2017 Pauleena M Macdougall View MES 498 Info Page
68394 MES 520 0990 Advanced Topics in Maine Studies 8/28/2017 12/8/2017 Jennifer Pickard View MES 520 Info Page
68395 MES 520 0991 Advanced Topics in Maine Studies 8/28/2017 12/8/2017 Pauleena M Macdougall View MES 520 Info Page
68002 MES 598 0990 Directed Study in Maine Studies 8/28/2017 12/8/2017 Kreg T Ettenger View MES 598 Info Page
65359 MUY 101 0990 Fundamentals of Music 8/28/2017 12/8/2017 Stuart L Marrs View MUY 101 Info Page
68192 NUR 103 0990 Foundations of Nursing Practice II 8/28/2017 12/8/2017 Nilda T Cravens View NUR 103 Info Page
68226 NUR 165 0990 Introduction to Care of the Older Adult 8/28/2017 12/8/2017 Kelley Ann Strout View NUR 165 Info Page
68225 NUR 265 0990 Human Genetics and Genomics for Nursing Practice 8/28/2017 12/8/2017 Charlene Ingwell-Spolan View NUR 265 Info Page
66728 NUR 303 0990 Pathophysiology 8/28/2017 12/8/2017 Deborah Saber View NUR 303 Info Page
68240 NUR 365 0990 Healthcare Informatics 8/28/2017 12/8/2017 Valerie Magoon Herbert View NUR 365 Info Page
68241 NUR 435 0990 Nursing Care of Patients and Families at End of Life 8/28/2017 12/8/2017 Patricia A Poirier View NUR 435 Info Page
68165 NUR 515 0990 Assessment, Measurement and Evaluation in Nursing Education 8/28/2017 12/8/2017 Mary Tedesco-Schneck View NUR 515 Info Page
67129 NUR 693 0990 Ethical Inquiry in Health Care 8/28/2017 12/8/2017 Ann E Sossong View NUR 693 Info Page
66154 PAX 201 0990 Introduction to Peace and Reconciliation Studies 8/28/2017 12/8/2017 Hugh J Curran View PAX 201 Info Page
67255 PAX 410 0990 Theories in Peace and Reconciliation Studies 8/28/2017 12/8/2017 Yvonne M Thibodeau View PAX 410 Info Page
68068 PAX 510 0990 Theories in Peace & Reconciliation Studies 8/28/2017 12/8/2017 Yvonne M Thibodeau View PAX 510 Info Page
68205 POS 349 0990 Topics in Comparative Politics 8/28/2017 12/8/2017 Glen Paul Holman View POS 349 Info Page
71685 POS 369 0990 Topics in International Relations 8/28/2017 12/8/2017 Glen Paul Holman View POS 369 Info Page
68048 SAR 540 0990 Introduction to Students at Risk 8/28/2017 12/8/2017 Candice Florence Russell View SAR 540 Info Page
68091 SED 500 0990 Adapting Instruction for Students with Disabilities 8/28/2017 12/8/2017 Diane W Jackson View SED 500 Info Page
67133 SED 517 0990 Serving Infants and Toddlers in Natural Environments 8/28/2017 12/8/2017 TBA View SED 517 Info Page
68166 SED 521 0990 Center-based Practicum and Seminar in Early Intervention 8/28/2017 12/8/2017 Deborah Rooks View SED 521 Info Page
68162 SED 523 0990 Home-based Practicum and Seminar in Early Intervention 8/28/2017 12/8/2017 TBA View SED 523 Info Page
67941 SED 528 0990 Educational Methods for Students with Autism 8/28/2017 12/8/2017 Gretchen Scheibel View SED 528 Info Page
66381 SED 532 0990 Behavior Management and Intervention 8/28/2017 12/8/2017 Gretchen Scheibel View SED 532 Info Page
67926 SED 543 0990 Program Planning and Curriculum Access 8/28/2017 12/8/2017 Diane W Jackson View SED 543 Info Page
67315 SED 545 0990 Intervention for Reading Difficulties 8/28/2017 12/8/2017 Sara Flanagan View SED 545 Info Page
68181 SED 581 0990 Response to Intervention for Behavior: School-Wide Prevention 8/28/2017 12/8/2017 Clarissa Lynn Fish View SED 581 Info Page
71930 SED 598 0995 Special Topics in Special Education 8/28/2017 12/8/2017 Diane W Jackson View SED 598 Info Page
68301 SFR 108 0990 Introduction to Arboriculture and Community Forestry 8/28/2017 12/8/2017 Lisa Deborah Carr View SFR 108 Info Page
67960 SFR 111 0990 Forests Through Time 8/28/2017 12/8/2017 William H Livingston View SFR 111 Info Page
67961 SFR 112 0994 Forests Through Time: Discussions 8/28/2017 12/8/2017 William H Livingston View SFR 112 Info Page
68039 SIE 507 0990 Information Systems Programming 8/28/2017 12/8/2017 Silvia E Nittel View SIE 507 Info Page
67132 SIE 509 0990 Principles of Geographic Information Systems 8/28/2017 12/8/2017 Constance C Holden View SIE 509 Info Page
66383 SIE 512 0990 Spatial Analysis 8/28/2017 12/8/2017 Mary Kate Beard-Tisdale View SIE 512 Info Page
68288 SMS 513 0990 Broaden The Impacts Of Your Research 8/28/2017 12/8/2017 Annette V deCharon View SMS 513 Info Page
66268 STS 232 0990 Principles of Statistical Inference 8/28/2017 12/8/2017 TBA View STS 232 Info Page
67460 SVT 325 0990 Surveying/Engineering Ethics 8/28/2017 12/8/2017 Carlton Arthur Brown View SVT 325 Info Page
68253 SVT 501 P701 Advanced Adjustment Computations 8/28/2017 12/8/2017 Raymond J Hintz View SVT 501 Info Page
68254 SVT 501 0990 Advanced Adjustment Computations 8/28/2017 12/8/2017 Raymond J Hintz View SVT 501 Info Page
68255 SVT 511 P701 Geodetic U.S. Public Land Survey Computations 8/28/2017 12/8/2017 Raymond J Hintz View SVT 511 Info Page
68256 SVT 511 0990 Geodetic U.S. Public Land Survey Computations 8/28/2017 12/8/2017 Raymond J Hintz View SVT 511 Info Page
65888 SWK 595 0990 Field Practicum in Social Work 8/28/2017 12/8/2017 TBA View SWK 595 Info Page
65891 SWK 597 0990 Advanced Topics in Social Work 8/28/2017 12/8/2017 Brent Wolcott Scobie View SWK 597 Info Page
65892 SWK 597 0991 Advanced Topics in Social Work 8/28/2017 12/8/2017 Gail B Werrbach View SWK 597 Info Page
67491 SWK 665 0990 Advanced Generalist Social Work Practice with Organizations and Communities 8/28/2017 12/8/2017 Susan Reisman View SWK 665 Info Page
65897 SWK 695 0990 Advanced Field Practicum in Social Work 8/28/2017 12/8/2017 Deirdre F Boylan View SWK 695 Info Page
70927 SWK 695 0991 Advanced Field Practicum in Social Work 8/28/2017 12/8/2017 Elin R Mackinnon View SWK 695 Info Page
65438 THE 111 0990 Introduction to Theatre 8/28/2017 12/8/2017 Thomas J Mikotowicz View THE 111 Info Page
66669 UST 100 0990 Introduction to the Bachelor of University Studies 10/16/2017 11/17/2017 Lori C Wingo View UST 100 Info Page
66670 UST 300 0990 Core Course in University Studies 8/28/2017 12/8/2017 Jeffrey Downey View UST 300 Info Page
65684 WGS 201 0990 Topics in Women's, Gender, and Sexuality Studies 8/28/2017 12/8/2017 Mary Okin View WGS 201 Info Page
65685 WGS 201 0991 Topics in Women's, Gender, and Sexuality Studies 8/28/2017 12/8/2017 Audrey Le View WGS 201 Info Page
67126 WGS 230 0990 Women, Health and the Environment 8/28/2017 12/8/2017 Sandra S Haggard View WGS 230 Info Page
66623 WGS 301 0990 Intermediate Topics in Women's, Gender, and Sexuality Studies 8/28/2017 12/8/2017 Jennifer Pickard View WGS 301 Info Page
66624 WGS 401 0991 Advanced Topics in Women's, Gender, and Sexuality Studies 8/28/2017 12/8/2017 Patrick P Cheek View WGS 401 Info Page
66800 WGS 501 0991 Graduate Topics in Women's, Gender, and Sexuality Studies 8/28/2017 12/8/2017 Mary Okin View WGS 501 Info Page

Request Information

Our advising center can answer all of your questions about earning a degree or certificate through UMaineOnline.

Call us at 207.581.5858 or email us at umaineonline@maine.edu.

We look forward to speaking with you!